Time;durP1;ratioP1;P1;durP2;ratioP2;P2;SDS_P1;SDS_P2;PMS_P1;PMS_P2;Temp;Humidity;BMP_temperature;BMP_pressure;BME280_temperature;BME280_humidity;BME280_pressure;Samples;Min_cycle;Max_cycle;Signal;HPM_P1;HPM_P2
2022/03/13 00:00:10;;;;;;;15.57;8.10;;;;;;;;;;5034962;28;20053;-83
2022/03/13 00:02:36;;;;;;;;;;;;;;;;;;5033307;28;20113;-84
2022/03/13 00:05:04;;;;;;;17.40;8.02;;;;;;;;;;5026919;28;45066;-83
2022/03/13 00:07:31;;;;;;;13.93;7.75;;;;;;;;;;5010182;28;20113;-83
2022/03/13 00:09:57;;;;;;;13.57;7.88;;;;;;;;;;5008338;28;20051;-84
2022/03/13 00:12:29;;;;;;;14.43;7.97;;;;;;;;;;5037172;28;20078;-83
2022/03/13 00:14:57;;;;;;;16.00;7.55;;;;;;;;;;5043765;28;20041;-83
2022/03/13 00:17:30;;;;;;;14.35;8.00;;;;;;;;;;5026836;28;20061;-84
2022/03/13 00:20:01;;;;;;;19.00;8.35;;;;;;;;;;5045027;28;20053;-84
2022/03/13 00:22:27;;;;;;;;;;;;;;;;;;5009509;28;20038;-82
2022/03/13 00:24:54;;;;;;;15.13;7.95;;;;;;;;;;5026210;28;43922;-83
2022/03/13 00:27:21;;;;;;;13.43;7.57;;;;;;;;;;5027526;28;20520;-84
2022/03/13 00:29:48;;;;;;;15.98;8.05;;;;;;;;;;5025616;28;20038;-83
2022/03/13 00:32:16;;;;;;;14.20;7.55;;;;;;;;;;5048679;28;20073;-84
2022/03/13 00:34:42;;;;;;;11.25;6.55;;;;;;;;;;5025131;28;20038;-82
2022/03/13 00:37:10;;;;;;;13.00;7.25;;;;;;;;;;5044850;28;20097;-84
2022/03/13 00:39:39;;;;;;;11.90;7.25;;;;;;;;;;5025764;28;20054;-83
2022/03/13 00:42:06;;;;;;;13.25;6.78;;;;;;;;;;5039399;28;20042;-84
2022/03/13 00:44:33;;;;;;;12.18;6.50;;;;;;;;;;5025165;28;20058;-82
2022/03/13 00:46:59;;;;;;;12.80;7.22;;;;;;;;;;5027429;28;20108;-84
2022/03/13 00:49:25;;;;;;;12.68;6.82;;;;;;;;;;5044799;28;20074;-83
2022/03/13 00:51:52;;;;;;;13.23;6.45;;;;;;;;;;5049065;28;20049;-83
2022/03/13 00:54:18;;;;;;;12.23;6.50;;;;;;;;;;5029029;28;20034;-83
2022/03/13 00:56:45;;;;;;;12.35;5.65;;;;;;;;;;5047241;28;20046;-82
2022/03/13 00:59:11;;;;;;;12.20;6.43;;;;;;;;;;5048139;28;20050;-84
2022/03/13 01:01:37;;;;;;;11.43;5.82;;;;;;;;;;5047428;28;20030;-83
2022/03/13 01:04:05;;;;;;;12.35;5.85;;;;;;;;;;5046344;28;20066;-83
2022/03/13 01:06:31;;;;;;;11.13;5.72;;;;;;;;;;5048469;28;20045;-83
2022/03/13 01:08:57;;;;;;;10.38;5.53;;;;;;;;;;5047952;28;20061;-83
2022/03/13 01:11:24;;;;;;;10.93;5.70;;;;;;;;;;5048679;28;20532;-83
2022/03/13 01:13:50;;;;;;;9.63;5.15;;;;;;;;;;5043398;28;20066;-84
2022/03/13 01:16:18;;;;;;;8.93;5.07;;;;;;;;;;5009942;28;20076;-83
2022/03/13 01:18:50;;;;;;;9.80;5.13;;;;;;;;;;5027513;28;20079;-83
2022/03/13 01:21:17;;;;;;;10.45;4.72;;;;;;;;;;5014722;28;20069;-83
2022/03/13 01:24:13;;;;;;;8.98;4.60;;;;;;;;;;5047251;28;20084;-83
2022/03/13 01:26:41;;;;;;;10.02;5.10;;;;;;;;;;5021839;28;20516;-83
2022/03/13 01:29:11;;;;;;;8.68;4.75;;;;;;;;;;5028569;28;20042;-83
2022/03/13 01:31:38;;;;;;;8.63;4.95;;;;;;;;;;5047873;28;20041;-84
2022/03/13 01:34:05;;;;;;;9.20;4.80;;;;;;;;;;5030619;28;20811;-82
2022/03/13 01:36:32;;;;;;;11.35;5.55;;;;;;;;;;5046301;28;20104;-83
2022/03/13 01:39:00;;;;;;;10.07;4.97;;;;;;;;;;5047952;28;20050;-82
2022/03/13 01:41:28;;;;;;;9.27;4.85;;;;;;;;;;5047444;28;20601;-83
2022/03/13 01:43:58;;;;;;;8.57;4.78;;;;;;;;;;5029188;28;20089;-82
2022/03/13 01:46:25;;;;;;;9.75;5.38;;;;;;;;;;5030344;28;20069;-83
2022/03/13 01:48:54;;;;;;;9.05;5.05;;;;;;;;;;5017488;28;20046;-83
2022/03/13 01:51:21;;;;;;;10.27;5.40;;;;;;;;;;5010142;28;20054;-82
2022/03/13 01:53:49;;;;;;;9.73;4.60;;;;;;;;;;5037753;28;20046;-83
2022/03/13 01:56:15;;;;;;;9.73;4.80;;;;;;;;;;5046946;28;20046;-82
2022/03/13 01:58:42;;;;;;;8.40;4.80;;;;;;;;;;5047252;28;20053;-83
2022/03/13 02:01:08;;;;;;;9.35;5.40;;;;;;;;;;5028495;28;20065;-84
2022/03/13 02:03:35;;;;;;;9.07;5.15;;;;;;;;;;5027760;28;20046;-83
2022/03/13 02:06:02;;;;;;;8.73;4.80;;;;;;;;;;5028662;28;20050;-83
2022/03/13 02:08:28;;;;;;;9.23;4.72;;;;;;;;;;5029450;28;20107;-84
2022/03/13 02:10:57;;;;;;;9.93;5.47;;;;;;;;;;5047146;28;20148;-82
2022/03/13 02:13:23;;;;;;;10.35;5.07;;;;;;;;;;5029802;28;20137;-83
2022/03/13 02:15:52;;;;;;;10.85;5.15;;;;;;;;;;5047130;28;20053;-84
2022/03/13 02:18:19;;;;;;;13.93;5.50;;;;;;;;;;5029253;28;20046;-83
2022/03/13 02:20:45;;;;;;;9.23;4.88;;;;;;;;;;5030002;28;20058;-82
2022/03/13 02:23:22;;;;;;;9.73;5.15;;;;;;;;;;5018040;28;20112;-83
2022/03/13 02:25:50;;;;;;;9.85;5.03;;;;;;;;;;5028705;28;20050;-84
2022/03/13 02:28:21;;;;;;;9.73;5.20;;;;;;;;;;5045462;28;20054;-84
2022/03/13 02:30:48;;;;;;;9.88;5.00;;;;;;;;;;5028555;28;20753;-83
2022/03/13 02:33:17;;;;;;;10.55;5.45;;;;;;;;;;5045741;28;20105;-82
2022/03/13 02:35:47;;;;;;;9.43;5.18;;;;;;;;;;5027784;28;20046;-83
2022/03/13 02:38:14;;;;;;;10.88;5.22;;;;;;;;;;5029559;28;20073;-83
2022/03/13 02:40:40;;;;;;;9.25;5.13;;;;;;;;;;5028185;28;20118;-82
2022/03/13 02:43:07;;;;;;;11.65;5.90;;;;;;;;;;5046070;28;20042;-83
2022/03/13 02:45:35;;;;;;;11.80;5.85;;;;;;;;;;5046105;28;20050;-84
2022/03/13 02:48:03;;;;;;;10.35;5.28;;;;;;;;;;5045828;28;20077;-83
2022/03/13 02:50:30;;;;;;;12.07;6.18;;;;;;;;;;5045608;28;20042;-83
2022/03/13 02:52:56;;;;;;;11.05;5.80;;;;;;;;;;5045157;28;20132;-82
2022/03/13 02:55:22;;;;;;;10.32;6.07;;;;;;;;;;5044619;28;20046;-82
2022/03/13 02:57:49;;;;;;;10.77;6.28;;;;;;;;;;5045134;28;20050;-83
2022/03/13 03:00:16;;;;;;;12.60;6.60;;;;;;;;;;5028039;28;20046;-84
2022/03/13 03:02:42;;;;;;;10.35;6.45;;;;;;;;;;5046381;28;20057;-83
2022/03/13 03:05:10;;;;;;;10.48;6.10;;;;;;;;;;5030559;28;20746;-83
2022/03/13 03:07:36;;;;;;;11.68;6.70;;;;;;;;;;5027978;28;20069;-84
2022/03/13 03:10:04;;;;;;;12.45;6.90;;;;;;;;;;5044880;28;20069;-82
2022/03/13 03:12:31;;;;;;;14.05;8.00;;;;;;;;;;5037499;28;20062;-82
2022/03/13 03:14:57;;;;;;;14.20;7.35;;;;;;;;;;5044739;28;20065;-83
2022/03/13 03:17:24;;;;;;;15.30;8.05;;;;;;;;;;5046136;28;20112;-83
2022/03/13 03:19:50;;;;;;;12.50;6.90;;;;;;;;;;5046685;28;20053;-83
2022/03/13 03:22:16;;;;;;;14.88;7.68;;;;;;;;;;5026815;28;20050;-84
2022/03/13 03:24:43;;;;;;;14.68;7.88;;;;;;;;;;5044577;28;20068;-84
2022/03/13 03:27:09;;;;;;;13.48;6.97;;;;;;;;;;5028092;28;20050;-83
2022/03/13 03:29:36;;;;;;;14.15;7.25;;;;;;;;;;5044149;28;20038;-83
2022/03/13 03:32:02;;;;;;;13.88;7.93;;;;;;;;;;5027707;28;20094;-82
2022/03/13 03:34:29;;;;;;;12.95;6.78;;;;;;;;;;5028411;28;20038;-84
2022/03/13 03:36:58;;;;;;;14.02;7.25;;;;;;;;;;5027646;28;20081;-82
2022/03/13 03:39:25;;;;;;;13.90;7.05;;;;;;;;;;5025056;28;20081;-82
2022/03/13 03:41:53;;;;;;;12.32;7.00;;;;;;;;;;5026127;28;20038;-84
2022/03/13 03:44:20;;;;;;;13.27;7.60;;;;;;;;;;5028140;28;20053;-83
2022/03/13 03:46:47;;;;;;;14.60;8.15;;;;;;;;;;5045239;28;20109;-84
2022/03/13 03:49:14;;;;;;;13.13;7.20;;;;;;;;;;5045669;28;20058;-85
2022/03/13 03:51:41;;;;;;;16.42;8.20;;;;;;;;;;5026028;28;20050;-84
2022/03/13 03:54:07;;;;;;;14.38;7.85;;;;;;;;;;5044318;28;20038;-84
2022/03/13 03:56:34;;;;;;;13.07;7.78;;;;;;;;;;5044262;28;20042;-84
2022/03/13 03:59:00;;;;;;;14.50;7.72;;;;;;;;;;5027970;28;20057;-83
2022/03/13 04:01:29;;;;;;;14.65;7.68;;;;;;;;;;5044657;28;20053;-84
2022/03/13 04:03:56;;;;;;;14.02;8.35;;;;;;;;;;5025317;28;20026;-83
2022/03/13 04:06:22;;;;;;;15.25;8.40;;;;;;;;;;5027192;28;20077;-82
2022/03/13 04:08:49;;;;;;;14.75;8.00;;;;;;;;;;5025995;28;20737;-83
2022/03/13 04:11:15;;;;;;;13.93;8.20;;;;;;;;;;5034568;28;20050;-84
2022/03/13 04:13:42;;;;;;;15.00;8.23;;;;;;;;;;5042901;28;20042;-85
2022/03/13 04:16:12;;;;;;;16.30;9.27;;;;;;;;;;5026812;28;20049;-83
2022/03/13 04:18:39;;;;;;;16.10;8.25;;;;;;;;;;5041898;28;20114;-84
2022/03/13 04:21:06;;;;;;;17.02;9.10;;;;;;;;;;5023417;28;20038;-83
2022/03/13 04:23:33;;;;;;;19.10;9.60;;;;;;;;;;5009227;28;20050;-83
2022/03/13 04:26:00;;;;;;;19.35;9.85;;;;;;;;;;5041461;28;20112;-84
2022/03/13 04:28:27;;;;;;;17.38;10.00;;;;;;;;;;5044037;28;20042;-84
2022/03/13 04:30:57;;;;;;;20.00;10.50;;;;;;;;;;5061123;28;20053;-83
2022/03/13 04:33:27;;;;;;;19.33;10.40;;;;;;;;;;5048440;28;20049;-83
2022/03/13 04:35:58;;;;;;;24.70;10.57;;;;;;;;;;5035106;28;20069;-83
2022/03/13 04:38:26;;;;;;;20.13;10.73;;;;;;;;;;5042746;28;20069;-83
2022/03/13 04:40:53;;;;;;;20.02;10.98;;;;;;;;;;5046222;28;20054;-83
2022/03/13 04:43:20;;;;;;;26.23;10.65;;;;;;;;;;5027767;28;20050;-83
2022/03/13 04:45:48;;;;;;;30.25;10.48;;;;;;;;;;5027302;28;20045;-84
2022/03/13 04:48:16;;;;;;;20.73;10.68;;;;;;;;;;5043594;28;20061;-82
2022/03/13 04:50:43;;;;;;;21.65;11.07;;;;;;;;;;5027163;28;20888;-83
2022/03/13 04:53:09;;;;;;;17.98;10.55;;;;;;;;;;5026195;28;20061;-84
2022/03/13 04:55:36;;;;;;;20.65;10.95;;;;;;;;;;5023837;28;20050;-85
2022/03/13 04:58:02;;;;;;;22.13;10.93;;;;;;;;;;5009900;28;20077;-83
2022/03/13 05:00:30;;;;;;;19.15;11.27;;;;;;;;;;5027421;28;20073;-85
2022/03/13 05:02:56;;;;;;;21.42;11.82;;;;;;;;;;5043827;28;20077;-83
2022/03/13 05:05:23;;;;;;;23.63;11.90;;;;;;;;;;5045574;28;20057;-83
2022/03/13 05:07:49;;;;;;;19.25;10.95;;;;;;;;;;5043604;28;20065;-84
2022/03/13 05:10:19;;;;;;;22.65;11.95;;;;;;;;;;5026621;28;20065;-82
2022/03/13 05:12:47;;;;;;;20.98;11.98;;;;;;;;;;5044030;28;20037;-82
2022/03/13 05:15:13;;;;;;;20.65;11.63;;;;;;;;;;5044614;28;20049;-84
2022/03/13 05:17:40;;;;;;;22.58;12.02;;;;;;;;;;5027334;28;20053;-83
2022/03/13 05:20:08;;;;;;;21.75;11.90;;;;;;;;;;5036650;28;20054;-82
2022/03/13 05:22:34;;;;;;;19.98;11.45;;;;;;;;;;5051769;28;20058;-82
2022/03/13 05:25:00;;;;;;;20.45;11.95;;;;;;;;;;5044521;28;20101;-84
2022/03/13 05:27:27;;;;;;;19.10;10.98;;;;;;;;;;5042943;28;20034;-84
2022/03/13 05:29:53;;;;;;;22.98;12.30;;;;;;;;;;5042423;28;20098;-84
2022/03/13 05:32:19;;;;;;;21.55;12.13;;;;;;;;;;5044772;28;20069;-84
2022/03/13 05:34:47;;;;;;;23.60;12.32;;;;;;;;;;5025995;28;20053;-83
2022/03/13 05:37:13;;;;;;;23.65;12.52;;;;;;;;;;5042011;28;20076;-82
2022/03/13 05:39:39;;;;;;;22.10;12.05;;;;;;;;;;5026119;28;20053;-84
2022/03/13 05:42:06;;;;;;;21.23;11.02;;;;;;;;;;5044058;28;20104;-83
2022/03/13 05:44:36;;;;;;;23.30;11.80;;;;;;;;;;5044116;28;20046;-83
2022/03/13 05:47:03;;;;;;;21.85;11.55;;;;;;;;;;5032866;28;20041;-83
2022/03/13 05:49:30;;;;;;;21.73;12.27;;;;;;;;;;5043514;28;20052;-84
2022/03/13 05:51:56;;;;;;;20.83;12.43;;;;;;;;;;5027846;28;20053;-82
2022/03/13 05:54:23;;;;;;;23.15;12.30;;;;;;;;;;5042446;28;20054;-82
2022/03/13 05:56:49;;;;;;;28.20;13.48;;;;;;;;;;5040092;28;20054;-83
2022/03/13 05:59:20;;;;;;;23.25;13.20;;;;;;;;;;5040021;28;20061;-82
2022/03/13 06:01:46;;;;;;;24.52;13.38;;;;;;;;;;5023091;28;20065;-82
2022/03/13 06:04:13;;;;;;;21.10;12.50;;;;;;;;;;5022071;28;20053;-82
2022/03/13 06:06:40;;;;;;;22.77;13.70;;;;;;;;;;5029582;28;20109;-83
2022/03/13 06:09:07;;;;;;;23.85;12.90;;;;;;;;;;5028593;28;20542;-83
2022/03/13 06:11:33;;;;;;;22.48;13.20;;;;;;;;;;5041092;28;20045;-84
2022/03/13 06:13:59;;;;;;;22.42;13.45;;;;;;;;;;5040430;28;20045;-84
2022/03/13 06:16:26;;;;;;;24.58;14.10;;;;;;;;;;5030626;28;20049;-82
2022/03/13 06:18:52;;;;;;;23.88;13.35;;;;;;;;;;5042739;28;20597;-83
2022/03/13 06:21:19;;;;;;;22.77;13.93;;;;;;;;;;5026820;28;20046;-83
2022/03/13 06:23:45;;;;;;;24.50;13.63;;;;;;;;;;5024066;28;20042;-83
2022/03/13 06:26:11;;;;;;;22.30;13.20;;;;;;;;;;5046697;28;20550;-83
2022/03/13 06:28:38;;;;;;;22.63;13.18;;;;;;;;;;5043263;28;20049;-84
2022/03/13 06:31:04;;;;;;;25.48;13.48;;;;;;;;;;5024874;28;20045;-83
2022/03/13 06:33:31;;;;;;;22.17;12.80;;;;;;;;;;5041951;28;20041;-83
2022/03/13 06:35:57;;;;;;;25.15;13.60;;;;;;;;;;5026407;28;20056;-83
2022/03/13 06:38:24;;;;;;;23.30;12.38;;;;;;;;;;5042877;28;20034;-82
2022/03/13 06:40:53;;;;;;;22.65;12.65;;;;;;;;;;5033130;28;20053;-83
2022/03/13 06:43:20;;;;;;;22.20;12.63;;;;;;;;;;5025099;28;20053;-83
2022/03/13 06:45:46;;;;;;;21.70;12.70;;;;;;;;;;5041039;28;20042;-83
2022/03/13 06:48:15;;;;;;;24.17;13.23;;;;;;;;;;5040985;28;20077;-82
2022/03/13 06:50:42;;;;;;;21.90;11.93;;;;;;;;;;5016554;28;20058;-83
2022/03/13 06:53:10;;;;;;;21.95;12.23;;;;;;;;;;5039577;28;20619;-82
2022/03/13 06:55:36;;;;;;;23.85;12.60;;;;;;;;;;5023184;28;20046;-82
2022/03/13 06:58:03;;;;;;;22.10;12.10;;;;;;;;;;5062078;28;20685;-82
2022/03/13 07:00:30;;;;;;;22.15;11.20;;;;;;;;;;5026218;28;20050;-83
2022/03/13 07:02:56;;;;;;;21.25;12.77;;;;;;;;;;5034104;28;20514;-83
2022/03/13 07:05:24;;;;;;;23.05;12.25;;;;;;;;;;5043136;28;20046;-83
2022/03/13 07:07:54;;;;;;;19.10;11.27;;;;;;;;;;5041165;28;20034;-83
2022/03/13 07:10:21;;;;;;;21.90;11.50;;;;;;;;;;5039668;28;20046;-83
2022/03/13 07:12:47;;;;;;;21.02;12.13;;;;;;;;;;5036650;28;20042;-83
2022/03/13 07:15:14;;;;;;;20.08;11.93;;;;;;;;;;5014129;28;20050;-79
2022/03/13 07:17:42;;;;;;;22.90;12.30;;;;;;;;;;5009621;28;20080;-79
2022/03/13 07:20:11;;;;;;;21.33;12.00;;;;;;;;;;5026954;28;20559;-79
2022/03/13 07:22:37;;;;;;;22.17;11.20;;;;;;;;;;5023298;28;20085;-80
2022/03/13 07:25:07;;;;;;;21.77;11.25;;;;;;;;;;5026727;28;20561;-79
2022/03/13 07:27:34;;;;;;;24.30;12.15;;;;;;;;;;5009835;28;20078;-80
2022/03/13 07:30:01;;;;;;;19.67;11.05;;;;;;;;;;5022648;28;20058;-79
2022/03/13 07:32:27;;;;;;;22.83;12.02;;;;;;;;;;5028497;28;20054;-81
2022/03/13 07:34:54;;;;;;;20.33;11.40;;;;;;;;;;5028892;28;20493;-79
2022/03/13 07:37:20;;;;;;;18.98;11.13;;;;;;;;;;5011213;28;20061;-80
2022/03/13 07:39:49;;;;;;;20.08;10.98;;;;;;;;;;5028506;28;20057;-80
2022/03/13 07:42:16;;;;;;;20.20;10.38;;;;;;;;;;5011310;28;20085;-79
2022/03/13 07:44:44;;;;;;;21.58;11.02;;;;;;;;;;5010270;28;20070;-80
2022/03/13 07:47:11;;;;;;;18.90;10.77;;;;;;;;;;5008968;28;20034;-79
2022/03/13 07:49:37;;;;;;;21.50;11.55;;;;;;;;;;5028342;28;20054;-80
2022/03/13 07:52:04;;;;;;;20.48;10.82;;;;;;;;;;5028880;28;20516;-79
2022/03/13 07:54:30;;;;;;;19.27;11.02;;;;;;;;;;5026328;28;20050;-79
2022/03/13 07:56:57;;;;;;;19.08;11.10;;;;;;;;;;5027293;28;20062;-79
2022/03/13 07:59:23;;;;;;;20.65;10.80;;;;;;;;;;5015273;28;20112;-79
2022/03/13 08:01:50;;;;;;;19.98;12.05;;;;;;;;;;5026392;28;20580;-79
2022/03/13 08:04:18;;;;;;;22.45;11.98;;;;;;;;;;5012207;28;20062;-78
2022/03/13 08:06:45;;;;;;;19.27;11.20;;;;;;;;;;5016592;28;20050;-80
2022/03/13 08:09:11;;;;;;;18.92;11.10;;;;;;;;;;5026980;28;20050;-80
2022/03/13 08:11:38;;;;;;;19.80;11.15;;;;;;;;;;5027178;28;20104;-80
2022/03/13 08:14:07;;;;;;;22.30;11.00;;;;;;;;;;5012863;28;20058;-79
2022/03/13 08:16:33;;;;;;;17.85;10.93;;;;;;;;;;5027478;28;20531;-79
2022/03/13 08:19:01;;;;;;;18.55;10.68;;;;;;;;;;5028298;28;20085;-79
2022/03/13 08:21:27;;;;;;;18.15;11.00;;;;;;;;;;5011887;28;20054;-79
2022/03/13 08:23:55;;;;;;;20.25;10.52;;;;;;;;;;5036786;28;20618;-79
2022/03/13 08:26:22;;;;;;;20.70;11.15;;;;;;;;;;5021818;28;20057;-80
2022/03/13 08:28:48;;;;;;;21.20;10.68;;;;;;;;;;5013717;28;20116;-80
2022/03/13 08:31:14;;;;;;;20.13;10.85;;;;;;;;;;5029146;28;20460;-79
2022/03/13 08:33:45;;;;;;;19.60;10.88;;;;;;;;;;5036711;28;20061;-80
2022/03/13 08:36:12;;;;;;;20.08;10.65;;;;;;;;;;5029186;28;20058;-78
2022/03/13 08:38:38;;;;;;;18.52;9.90;;;;;;;;;;5026308;28;20053;-81
2022/03/13 08:41:05;;;;;;;19.55;10.40;;;;;;;;;;5024544;28;20108;-80
2022/03/13 08:43:31;;;;;;;19.17;10.80;;;;;;;;;;5014723;28;20608;-80
2022/03/13 08:45:59;;;;;;;18.55;10.85;;;;;;;;;;5025042;28;20050;-80
2022/03/13 08:48:26;;;;;;;19.85;9.80;;;;;;;;;;5031076;28;20058;-80
2022/03/13 08:50:52;;;;;;;21.05;10.02;;;;;;;;;;5027062;28;20088;-81
2022/03/13 08:53:19;;;;;;;18.73;9.48;;;;;;;;;;5013096;28;20517;-81
2022/03/13 08:55:45;;;;;;;17.05;9.65;;;;;;;;;;5015711;28;20062;-81
2022/03/13 08:58:11;;;;;;;18.38;10.23;;;;;;;;;;5028933;28;20571;-82
2022/03/13 09:00:41;;;;;;;19.70;9.60;;;;;;;;;;5028689;28;20062;-81
2022/03/13 09:03:08;;;;;;;18.77;9.95;;;;;;;;;;5017195;28;20289;-81
2022/03/13 09:05:35;;;;;;;16.55;9.55;;;;;;;;;;5013649;28;20053;-81
2022/03/13 09:08:02;;;;;;;19.20;9.80;;;;;;;;;;5008860;28;20058;-81
2022/03/13 09:10:37;;;;;;;16.95;9.10;;;;;;;;;;5030188;28;20046;-81
2022/03/13 09:13:05;;;;;;;16.90;9.57;;;;;;;;;;5036333;28;20046;-81
2022/03/13 09:15:31;;;;;;;18.20;9.95;;;;;;;;;;5017230;28;20069;-82
2022/03/13 09:18:02;;;;;;;19.48;9.48;;;;;;;;;;5036165;28;20050;-81
2022/03/13 09:20:28;;;;;;;17.20;10.05;;;;;;;;;;5021188;28;20061;-81
2022/03/13 09:22:55;;;;;;;20.50;9.77;;;;;;;;;;5023114;28;20054;-81
2022/03/13 09:25:21;;;;;;;19.55;9.57;;;;;;;;;;5013287;28;20054;-81
2022/03/13 09:27:52;;;;;;;17.80;9.98;;;;;;;;;;5015175;28;20081;-81
2022/03/13 09:30:18;;;;;;;18.48;9.50;;;;;;;;;;5034816;28;20136;-80
2022/03/13 09:32:44;;;;;;;18.35;9.63;;;;;;;;;;5016424;28;20097;-81
2022/03/13 09:35:14;;;;;;;19.75;9.60;;;;;;;;;;5011555;28;20058;-81
2022/03/13 09:37:40;;;;;;;17.30;9.73;;;;;;;;;;5022074;28;20054;-81
2022/03/13 09:40:14;;;;;;;18.38;10.18;;;;;;;;;;5015703;28;20054;-81
2022/03/13 09:42:41;;;;;;;17.40;9.57;;;;;;;;;;5015435;28;20090;-81
2022/03/13 09:45:08;;;;;;;24.80;10.73;;;;;;;;;;5019601;28;20050;-81
2022/03/13 09:47:35;;;;;;;23.30;10.20;;;;;;;;;;5031210;28;20101;-82
2022/03/13 09:50:04;;;;;;;17.70;9.38;;;;;;;;;;5017875;28;20144;-80
2022/03/13 09:52:33;;;;;;;18.77;9.77;;;;;;;;;;5032637;28;20046;-81
2022/03/13 09:55:00;;;;;;;20.05;10.13;;;;;;;;;;5032870;28;20136;-81
2022/03/13 09:57:28;;;;;;;18.40;10.30;;;;;;;;;;5014707;28;20109;-81
2022/03/13 09:59:55;;;;;;;16.98;9.88;;;;;;;;;;5032089;28;20054;-81
2022/03/13 10:02:31;;;;;;;20.20;10.50;;;;;;;;;;5033168;28;20053;-80
2022/03/13 10:04:58;;;;;;;19.30;10.13;;;;;;;;;;5012698;28;20563;-81
2022/03/13 10:07:24;;;;;;;17.77;10.32;;;;;;;;;;5031934;28;20124;-81
2022/03/13 10:09:51;;;;;;;17.92;10.05;;;;;;;;;;5030839;28;20552;-80
2022/03/13 10:12:18;;;;;;;18.90;9.93;;;;;;;;;;5014073;28;20547;-81
2022/03/13 10:15:00;;;;;;;18.08;9.95;;;;;;;;;;5016126;28;20501;-81
2022/03/13 10:17:28;;;;;;;17.80;9.93;;;;;;;;;;5011951;28;20141;-82
2022/03/13 10:20:11;;;;;;;17.20;10.27;;;;;;;;;;5029770;28;20065;-81
2022/03/13 10:22:40;;;;;;;18.80;10.55;;;;;;;;;;5015261;28;20108;-81
2022/03/13 10:25:06;;;;;;;19.75;10.25;;;;;;;;;;5015337;28;20116;-81
2022/03/13 10:27:36;;;;;;;17.15;10.20;;;;;;;;;;5021794;28;20042;-81
2022/03/13 10:30:03;;;;;;;18.65;10.98;;;;;;;;;;5022730;28;20053;-80
2022/03/13 10:32:30;;;;;;;20.05;10.48;;;;;;;;;;5035708;28;20057;-80
2022/03/13 10:35:01;;;;;;;19.60;10.25;;;;;;;;;;5020803;28;20058;-80
2022/03/13 10:37:35;;;;;;;15.73;10.13;;;;;;;;;;5014950;28;20045;-78
2022/03/13 10:40:12;;;;;;;20.20;11.07;;;;;;;;;;5012798;28;20042;-82
2022/03/13 10:42:43;;;;;;;17.17;10.40;;;;;;;;;;5019239;28;20058;-79
2022/03/13 10:45:51;;;;;;;19.42;11.13;;;;;;;;;;5018930;28;20519;-79
2022/03/13 10:48:22;;;;;;;18.42;10.77;;;;;;;;;;5030738;28;20066;-80
2022/03/13 10:51:00;;;;;;;18.83;10.38;;;;;;;;;;5010955;28;20049;-82
2022/03/13 10:53:28;;;;;;;19.05;10.02;;;;;;;;;;4996932;28;20469;-81
2022/03/13 10:56:02;;;;;;;16.02;9.60;;;;;;;;;;5012421;28;20053;-80
2022/03/13 10:58:39;;;;;;;17.88;10.55;;;;;;;;;;5028270;28;20073;-80
2022/03/13 11:01:12;;;;;;;16.25;9.73;;;;;;;;;;5012706;28;20065;-81
2022/03/13 11:03:49;;;;;;;15.90;9.93;;;;;;;;;;5029609;28;20057;-80
2022/03/13 11:06:44;;;;;;;16.40;10.18;;;;;;;;;;5009967;28;20162;-81
2022/03/13 11:09:28;;;;;;;15.57;10.27;;;;;;;;;;5021561;28;20058;-80
2022/03/13 11:12:15;;;;;;;16.58;9.68;;;;;;;;;;5021454;28;20061;-81
2022/03/13 11:14:45;;;;;;;17.38;10.75;;;;;;;;;;5025297;28;20069;-79
2022/03/13 11:17:18;;;;;;;17.10;10.52;;;;;;;;;;5000284;28;20127;-80
2022/03/13 11:19:52;;;;;;;16.60;10.10;;;;;;;;;;5029955;28;20061;-79
2022/03/13 11:22:22;;;;;;;16.42;10.23;;;;;;;;;;5012358;28;20065;-80
2022/03/13 11:24:55;;;;;;;14.55;9.55;;;;;;;;;;5029661;28;20512;-80
2022/03/13 11:27:24;;;;;;;16.05;10.65;;;;;;;;;;5031331;28;20532;-81
2022/03/13 11:29:54;;;;;;;18.42;10.55;;;;;;;;;;5017232;28;20076;-83
2022/03/13 11:32:42;;;;;;;15.85;9.60;;;;;;;;;;5035175;28;20089;-81
2022/03/13 11:35:18;;;;;;;16.00;10.20;;;;;;;;;;5028903;28;20069;-81
2022/03/13 11:37:48;;;;;;;15.50;9.90;;;;;;;;;;5014498;28;20057;-81
2022/03/13 11:40:17;;;;;;;14.68;9.48;;;;;;;;;;5020819;28;20052;-81
2022/03/13 11:42:47;;;;;;;16.60;10.07;;;;;;;;;;5028725;28;20066;-81
2022/03/13 11:45:44;;;;;;;16.23;10.05;;;;;;;;;;5021686;28;20080;-79
2022/03/13 11:48:19;;;;;;;13.77;8.57;;;;;;;;;;5007772;28;20939;-80
2022/03/13 11:50:51;;;;;;;14.40;8.18;;;;;;;;;;5007455;28;20565;-78
2022/03/13 11:53:18;;;;;;;14.23;9.07;;;;;;;;;;5026317;28;20050;-81
2022/03/13 11:56:09;;;;;;;19.40;10.85;;;;;;;;;;5016061;28;20137;-83
2022/03/13 11:58:41;;;;;;;19.25;10.88;;;;;;;;;;5028762;28;20054;-79
2022/03/13 12:01:09;;;;;;;16.20;10.30;;;;;;;;;;5006962;28;20489;-79
2022/03/13 12:03:36;;;;;;;16.02;10.55;;;;;;;;;;5008914;28;21203;-79
2022/03/13 12:06:03;;;;;;;15.75;9.38;;;;;;;;;;5030157;28;20057;-78
2022/03/13 12:08:49;;;;;;;15.80;9.63;;;;;;;;;;5027366;28;20112;-79
2022/03/13 12:11:38;;;;;;;14.50;9.00;;;;;;;;;;5000414;28;20105;-76
2022/03/13 12:14:08;;;;;;;16.23;9.43;;;;;;;;;;5025956;28;20120;-76
2022/03/13 12:16:35;;;;;;;16.20;9.38;;;;;;;;;;5023781;28;20057;-79
2022/03/13 12:19:02;;;;;;;14.02;9.35;;;;;;;;;;5024820;28;20136;-77
2022/03/13 12:21:29;;;;;;;13.65;8.98;;;;;;;;;;5025275;28;20053;-77
2022/03/13 12:24:07;;;;;;;15.05;9.30;;;;;;;;;;5007051;28;20058;-76
2022/03/13 12:26:35;;;;;;;18.05;10.68;;;;;;;;;;4993055;28;20141;-77
2022/03/13 12:29:02;;;;;;;13.93;9.27;;;;;;;;;;5023333;28;20061;-76
2022/03/13 12:31:37;;;;;;;13.10;8.38;;;;;;;;;;5006508;28;20093;-77
2022/03/13 12:34:04;;;;;;;15.18;8.77;;;;;;;;;;5005876;28;20547;-76
2022/03/13 12:36:41;;;;;;;16.52;9.05;;;;;;;;;;5025606;28;20100;-76
2022/03/13 12:39:14;;;;;;;14.65;9.23;;;;;;;;;;5007774;28;20058;-78
2022/03/13 12:41:44;;;;;;;14.23;9.50;;;;;;;;;;5010887;28;20069;-77
2022/03/13 12:44:12;;;;;;;13.90;9.48;;;;;;;;;;5023706;28;20061;-79
2022/03/13 12:46:40;;;;;;;14.52;8.60;;;;;;;;;;5008934;28;20054;-79
2022/03/13 12:49:08;;;;;;;16.90;9.65;;;;;;;;;;5016806;28;20104;-79
2022/03/13 12:51:41;;;;;;;14.25;8.93;;;;;;;;;;5028160;28;20521;-78
2022/03/13 12:54:09;;;;;;;14.75;9.57;;;;;;;;;;5011861;28;20061;-79
2022/03/13 12:56:44;;;;;;;16.90;9.02;;;;;;;;;;5009961;28;20612;-79
2022/03/13 12:59:31;;;;;;;15.45;8.85;;;;;;;;;;5021852;28;20537;-79
2022/03/13 13:02:04;;;;;;;14.10;8.60;;;;;;;;;;5029299;28;20056;-79
2022/03/13 13:04:32;;;;;;;14.85;8.32;;;;;;;;;;5027836;28;20050;-77
2022/03/13 13:06:58;;;;;;;14.50;9.27;;;;;;;;;;5028952;28;20065;-78
2022/03/13 13:09:28;;;;;;;12.30;8.55;;;;;;;;;;5028582;28;20104;-77
2022/03/13 13:11:54;;;;;;;12.52;8.43;;;;;;;;;;5024802;28;20054;-78
2022/03/13 13:14:25;;;;;;;12.70;8.60;;;;;;;;;;5011682;28;20111;-77
2022/03/13 13:16:51;;;;;;;;;;;;;;;;;;5028985;28;20050;-78
2022/03/13 13:19:18;;;;;;;12.05;7.65;;;;;;;;;;5028329;28;43300;-78
2022/03/13 13:21:53;;;;;;;13.20;8.02;;;;;;;;;;5029433;28;20053;-78
2022/03/13 13:24:21;;;;;;;14.35;8.10;;;;;;;;;;5031001;28;20101;-79
2022/03/13 13:26:47;;;;;;;11.35;7.00;;;;;;;;;;5028604;28;20062;-81
2022/03/13 13:29:53;;;;;;;12.23;7.65;;;;;;;;;;5005543;28;20050;-78
2022/03/13 13:32:22;;;;;;;15.10;7.50;;;;;;;;;;5007463;28;20054;-80
2022/03/13 13:35:07;;;;;;;11.35;6.82;;;;;;;;;;5021675;28;21063;-78
2022/03/13 13:37:34;;;;;;;11.60;6.63;;;;;;;;;;5010195;28;20058;-79
2022/03/13 13:40:04;;;;;;;10.35;6.45;;;;;;;;;;5007858;28;20058;-77
2022/03/13 13:42:32;;;;;;;11.80;5.93;;;;;;;;;;5009123;28;20505;-78
2022/03/13 13:45:22;;;;;;;10.38;6.28;;;;;;;;;;5027944;28;20823;-78
2022/03/13 13:47:49;;;;;;;10.43;6.00;;;;;;;;;;5007411;28;20498;-80
2022/03/13 13:50:16;;;;;;;9.77;6.25;;;;;;;;;;5028324;28;20053;-78
2022/03/13 13:52:42;;;;;;;10.70;6.78;;;;;;;;;;5010727;28;20050;-78
2022/03/13 13:55:22;;;;;;;11.30;6.97;;;;;;;;;;5027629;28;20104;-78
2022/03/13 13:58:08;;;;;;;12.77;7.50;;;;;;;;;;5008663;28;20054;-78
2022/03/13 14:00:35;;;;;;;12.77;7.57;;;;;;;;;;5026591;28;20050;-77
2022/03/13 14:03:01;;;;;;;11.98;7.15;;;;;;;;;;5009821;28;20053;-78
2022/03/13 14:05:28;;;;;;;11.90;7.38;;;;;;;;;;5022012;28;20050;-78
2022/03/13 14:08:16;;;;;;;14.40;7.85;;;;;;;;;;5019767;28;20525;-78
2022/03/13 14:10:42;;;;;;;13.43;8.02;;;;;;;;;;5009484;28;20052;-79
2022/03/13 14:13:08;;;;;;;12.07;8.05;;;;;;;;;;5028800;28;20615;-80
2022/03/13 14:15:37;;;;;;;13.27;7.97;;;;;;;;;;5026649;28;20101;-78
2022/03/13 14:18:03;;;;;;;13.02;8.20;;;;;;;;;;5027820;28;20049;-80
2022/03/13 14:20:30;;;;;;;13.80;7.50;;;;;;;;;;5020740;28;20051;-81
2022/03/13 14:22:56;;;;;;;14.15;8.20;;;;;;;;;;5027235;28;20057;-79
2022/03/13 14:25:23;;;;;;;15.52;8.85;;;;;;;;;;5025342;28;20054;-78
2022/03/13 14:27:52;;;;;;;14.90;9.45;;;;;;;;;;5007715;28;20105;-78
2022/03/13 14:30:18;;;;;;;17.08;9.80;;;;;;;;;;5028008;28;20093;-78
2022/03/13 14:32:44;;;;;;;15.20;9.63;;;;;;;;;;5008324;28;20145;-78
2022/03/13 14:35:11;;;;;;;15.90;8.90;;;;;;;;;;5025153;28;20061;-78